sensor_id;sensor_type;location;lat;lon;timestamp;temperature;humidity
43015;DHT22;28637;50.554;7.032;2023-11-19T00:02:47;10.50;99.90
43015;DHT22;28637;50.554;7.032;2023-11-19T00:07:48;10.50;99.90
43015;DHT22;28637;50.554;7.032;2023-11-19T00:12:49;10.40;99.90
43015;DHT22;28637;50.554;7.032;2023-11-19T00:17:50;10.40;99.90
43015;DHT22;28637;50.554;7.032;2023-11-19T00:22:50;10.40;99.90
43015;DHT22;28637;50.554;7.032;2023-11-19T00:27:54;10.40;99.90
43015;DHT22;28637;50.554;7.032;2023-11-19T00:32:56;10.40;99.90
43015;DHT22;28637;50.554;7.032;2023-11-19T00:37:57;10.50;99.90
43015;DHT22;28637;50.554;7.032;2023-11-19T00:42:59;10.50;99.90
43015;DHT22;28637;50.554;7.032;2023-11-19T00:47:59;10.40;99.90
43015;DHT22;28637;50.554;7.032;2023-11-19T00:53:00;10.50;99.90
43015;DHT22;28637;50.554;7.032;2023-11-19T00:58:01;10.50;99.90
43015;DHT22;28637;50.554;7.032;2023-11-19T01:03:01;10.50;99.90
43015;DHT22;28637;50.554;7.032;2023-11-19T01:08:02;10.60;99.90
43015;DHT22;28637;50.554;7.032;2023-11-19T01:13:05;10.60;99.90
43015;DHT22;28637;50.554;7.032;2023-11-19T01:18:06;10.70;99.90
43015;DHT22;28637;50.554;7.032;2023-11-19T01:23:08;10.70;99.90
43015;DHT22;28637;50.554;7.032;2023-11-19T01:28:08;10.80;99.90
43015;DHT22;28637;50.554;7.032;2023-11-19T01:33:09;10.80;99.90
43015;DHT22;28637;50.554;7.032;2023-11-19T01:38:10;10.80;99.90
43015;DHT22;28637;50.554;7.032;2023-11-19T01:43:11;10.80;99.90
43015;DHT22;28637;50.554;7.032;2023-11-19T01:48:13;10.80;99.90
43015;DHT22;28637;50.554;7.032;2023-11-19T01:53:14;10.80;99.90
43015;DHT22;28637;50.554;7.032;2023-11-19T01:58:15;10.80;99.90
43015;DHT22;28637;50.554;7.032;2023-11-19T02:03:16;10.90;99.90
43015;DHT22;28637;50.554;7.032;2023-11-19T02:08:17;10.90;99.90
43015;DHT22;28637;50.554;7.032;2023-11-19T02:13:18;11.00;99.90
43015;DHT22;28637;50.554;7.032;2023-11-19T02:18:27;11.00;99.90
43015;DHT22;28637;50.554;7.032;2023-11-19T02:23:28;11.10;99.90
43015;DHT22;28637;50.554;7.032;2023-11-19T02:28:30;11.10;99.90
43015;DHT22;28637;50.554;7.032;2023-11-19T02:33:33;11.10;99.90
43015;DHT22;28637;50.554;7.032;2023-11-19T02:38:35;11.20;99.90
43015;DHT22;28637;50.554;7.032;2023-11-19T02:43:37;11.20;99.90
43015;DHT22;28637;50.554;7.032;2023-11-19T02:48:38;11.20;99.90
43015;DHT22;28637;50.554;7.032;2023-11-19T02:53:38;11.20;99.90
43015;DHT22;28637;50.554;7.032;2023-11-19T02:58:40;11.30;99.90
43015;DHT22;28637;50.554;7.032;2023-11-19T03:03:40;11.30;99.90
43015;DHT22;28637;50.554;7.032;2023-11-19T03:08:42;11.20;99.90
43015;DHT22;28637;50.554;7.032;2023-11-19T03:13:43;11.10;99.90
43015;DHT22;28637;50.554;7.032;2023-11-19T03:18:43;11.10;99.90
43015;DHT22;28637;50.554;7.032;2023-11-19T03:23:44;11.10;99.90
43015;DHT22;28637;50.554;7.032;2023-11-19T03:28:45;11.10;99.90
43015;DHT22;28637;50.554;7.032;2023-11-19T03:33:46;11.10;99.90
43015;DHT22;28637;50.554;7.032;2023-11-19T03:38:47;11.20;99.90
43015;DHT22;28637;50.554;7.032;2023-11-19T03:43:47;11.40;99.90
43015;DHT22;28637;50.554;7.032;2023-11-19T03:48:49;11.50;99.90
43015;DHT22;28637;50.554;7.032;2023-11-19T03:53:50;11.50;99.90
43015;DHT22;28637;50.554;7.032;2023-11-19T03:58:50;11.40;99.90
43015;DHT22;28637;50.554;7.032;2023-11-19T04:03:52;11.40;99.90
43015;DHT22;28637;50.554;7.032;2023-11-19T04:08:53;11.30;99.90
43015;DHT22;28637;50.554;7.032;2023-11-19T04:13:53;11.40;99.90
43015;DHT22;28637;50.554;7.032;2023-11-19T04:18:54;11.40;99.90
43015;DHT22;28637;50.554;7.032;2023-11-19T04:23:55;11.40;99.90
43015;DHT22;28637;50.554;7.032;2023-11-19T04:28:56;11.40;99.90
43015;DHT22;28637;50.554;7.032;2023-11-19T04:33:57;11.40;99.90
43015;DHT22;28637;50.554;7.032;2023-11-19T04:38:57;11.30;99.90
43015;DHT22;28637;50.554;7.032;2023-11-19T04:43:59;11.30;99.90
43015;DHT22;28637;50.554;7.032;2023-11-19T04:49:00;11.40;99.90
43015;DHT22;28637;50.554;7.032;2023-11-19T04:54:01;11.40;99.90
43015;DHT22;28637;50.554;7.032;2023-11-19T04:59:01;11.40;99.90
43015;DHT22;28637;50.554;7.032;2023-11-19T05:04:02;11.50;99.90
43015;DHT22;28637;50.554;7.032;2023-11-19T05:09:03;11.50;99.90
43015;DHT22;28637;50.554;7.032;2023-11-19T05:14:07;11.60;99.90
43015;DHT22;28637;50.554;7.032;2023-11-19T05:19:09;11.60;99.90
43015;DHT22;28637;50.554;7.032;2023-11-19T05:24:10;11.70;99.90
43015;DHT22;28637;50.554;7.032;2023-11-19T05:29:12;11.80;99.90
43015;DHT22;28637;50.554;7.032;2023-11-19T05:34:12;11.90;99.90
43015;DHT22;28637;50.554;7.032;2023-11-19T05:39:16;11.90;99.90
43015;DHT22;28637;50.554;7.032;2023-11-19T05:44:17;11.90;99.90
43015;DHT22;28637;50.554;7.032;2023-11-19T05:49:18;11.90;99.90
43015;DHT22;28637;50.554;7.032;2023-11-19T05:54:19;11.90;99.90
43015;DHT22;28637;50.554;7.032;2023-11-19T05:59:21;11.90;99.90
43015;DHT22;28637;50.554;7.032;2023-11-19T06:04:23;11.70;99.90
43015;DHT22;28637;50.554;7.032;2023-11-19T06:09:23;11.50;99.90
43015;DHT22;28637;50.554;7.032;2023-11-19T06:14:24;11.40;99.90
43015;DHT22;28637;50.554;7.032;2023-11-19T06:19:25;11.30;99.90
43015;DHT22;28637;50.554;7.032;2023-11-19T06:24:25;11.30;99.90
43015;DHT22;28637;50.554;7.032;2023-11-19T06:29:26;11.20;99.90
43015;DHT22;28637;50.554;7.032;2023-11-19T06:34:27;11.20;99.90
43015;DHT22;28637;50.554;7.032;2023-11-19T06:39:28;11.30;99.90
43015;DHT22;28637;50.554;7.032;2023-11-19T06:44:29;11.50;99.90
43015;DHT22;28637;50.554;7.032;2023-11-19T06:49:30;11.40;99.90
43015;DHT22;28637;50.554;7.032;2023-11-19T06:54:30;11.50;99.90
43015;DHT22;28637;50.554;7.032;2023-11-19T06:59:31;11.50;99.90
43015;DHT22;28637;50.554;7.032;2023-11-19T07:04:32;11.40;99.90
43015;DHT22;28637;50.554;7.032;2023-11-19T07:09:33;11.40;99.90
43015;DHT22;28637;50.554;7.032;2023-11-19T07:14:34;11.40;99.90
43015;DHT22;28637;50.554;7.032;2023-11-19T07:19:35;11.50;99.90
43015;DHT22;28637;50.554;7.032;2023-11-19T07:24:39;11.60;99.90
43015;DHT22;28637;50.554;7.032;2023-11-19T07:29:40;11.80;99.90
43015;DHT22;28637;50.554;7.032;2023-11-19T07:34:41;11.70;99.90
43015;DHT22;28637;50.554;7.032;2023-11-19T07:39:41;11.80;99.90
43015;DHT22;28637;50.554;7.032;2023-11-19T07:44:43;11.70;99.90
43015;DHT22;28637;50.554;7.032;2023-11-19T07:49:44;11.70;99.90
43015;DHT22;28637;50.554;7.032;2023-11-19T07:54:45;11.60;99.90
43015;DHT22;28637;50.554;7.032;2023-11-19T07:59:46;11.60;99.90
43015;DHT22;28637;50.554;7.032;2023-11-19T08:04:47;11.50;99.90
43015;DHT22;28637;50.554;7.032;2023-11-19T08:09:50;11.60;99.90
43015;DHT22;28637;50.554;7.032;2023-11-19T08:14:51;11.60;99.90
43015;DHT22;28637;50.554;7.032;2023-11-19T08:19:51;11.70;99.90
43015;DHT22;28637;50.554;7.032;2023-11-19T08:24:52;11.80;99.90
43015;DHT22;28637;50.554;7.032;2023-11-19T08:29:56;12.00;99.90
43015;DHT22;28637;50.554;7.032;2023-11-19T08:34:59;12.10;99.90
43015;DHT22;28637;50.554;7.032;2023-11-19T08:40:00;12.00;99.90
43015;DHT22;28637;50.554;7.032;2023-11-19T08:45:01;12.10;99.90
43015;DHT22;28637;50.554;7.032;2023-11-19T08:50:02;12.10;99.90
43015;DHT22;28637;50.554;7.032;2023-11-19T08:55:04;12.10;99.90
43015;DHT22;28637;50.554;7.032;2023-11-19T09:00:10;12.20;99.90
43015;DHT22;28637;50.554;7.032;2023-11-19T09:05:14;12.20;99.90
43015;DHT22;28637;50.554;7.032;2023-11-19T09:10:15;12.20;99.90
43015;DHT22;28637;50.554;7.032;2023-11-19T09:15:16;12.30;99.90
43015;DHT22;28637;50.554;7.032;2023-11-19T09:20:17;12.50;99.90
43015;DHT22;28637;50.554;7.032;2023-11-19T09:25:17;12.60;99.90
43015;DHT22;28637;50.554;7.032;2023-11-19T09:30:18;12.80;99.90
43015;DHT22;28637;50.554;7.032;2023-11-19T09:35:19;13.00;99.90
43015;DHT22;28637;50.554;7.032;2023-11-19T09:40:19;13.40;99.90
43015;DHT22;28637;50.554;7.032;2023-11-19T09:45:21;13.60;99.90
43015;DHT22;28637;50.554;7.032;2023-11-19T09:50:22;13.60;99.90
43015;DHT22;28637;50.554;7.032;2023-11-19T09:55:23;13.70;99.90
43015;DHT22;28637;50.554;7.032;2023-11-19T10:00:23;13.80;99.90
43015;DHT22;28637;50.554;7.032;2023-11-19T10:05:24;14.10;99.90
43015;DHT22;28637;50.554;7.032;2023-11-19T10:10:26;13.90;99.90
43015;DHT22;28637;50.554;7.032;2023-11-19T10:15:27;13.70;99.90
43015;DHT22;28637;50.554;7.032;2023-11-19T10:20:27;13.70;99.90
43015;DHT22;28637;50.554;7.032;2023-11-19T10:25:29;13.40;99.90
43015;DHT22;28637;50.554;7.032;2023-11-19T10:30:30;13.20;99.90
43015;DHT22;28637;50.554;7.032;2023-11-19T10:35:32;13.10;99.90
43015;DHT22;28637;50.554;7.032;2023-11-19T10:40:39;13.30;99.90
43015;DHT22;28637;50.554;7.032;2023-11-19T10:45:43;13.30;99.90
43015;DHT22;28637;50.554;7.032;2023-11-19T10:50:46;13.50;99.90
43015;DHT22;28637;50.554;7.032;2023-11-19T10:55:50;13.40;99.90
43015;DHT22;28637;50.554;7.032;2023-11-19T11:00:54;13.60;99.90
43015;DHT22;28637;50.554;7.032;2023-11-19T11:05:56;13.90;99.90
43015;DHT22;28637;50.554;7.032;2023-11-19T11:10:58;14.00;99.90
43015;DHT22;28637;50.554;7.032;2023-11-19T11:16:00;14.20;99.90
43015;DHT22;28637;50.554;7.032;2023-11-19T11:21:05;14.50;99.90
43015;DHT22;28637;50.554;7.032;2023-11-19T11:42:34;13.50;99.90
43015;DHT22;28637;50.554;7.032;2023-11-19T11:57:59;13.40;99.90
43015;DHT22;28637;50.554;7.032;2023-11-19T12:03:00;13.30;99.90
43015;DHT22;28637;50.554;7.032;2023-11-19T12:08:05;13.30;99.90
43015;DHT22;28637;50.554;7.032;2023-11-19T12:13:11;13.30;99.90
43015;DHT22;28637;50.554;7.032;2023-11-19T12:18:19;13.30;99.90
43015;DHT22;28637;50.554;7.032;2023-11-19T12:23:20;14.20;99.90
43015;DHT22;28637;50.554;7.032;2023-11-19T12:28:21;14.00;99.90
43015;DHT22;28637;50.554;7.032;2023-11-19T12:33:21;13.80;99.90
43015;DHT22;28637;50.554;7.032;2023-11-19T12:38:25;13.60;99.90
43015;DHT22;28637;50.554;7.032;2023-11-19T12:43:27;13.40;99.90
43015;DHT22;28637;50.554;7.032;2023-11-19T12:48:27;13.30;99.90
43015;DHT22;28637;50.554;7.032;2023-11-19T12:53:28;13.30;99.90
43015;DHT22;28637;50.554;7.032;2023-11-19T12:58:33;13.30;99.90
43015;DHT22;28637;50.554;7.032;2023-11-19T13:03:34;13.40;99.90
43015;DHT22;28637;50.554;7.032;2023-11-19T13:08:40;13.50;99.90
43015;DHT22;28637;50.554;7.032;2023-11-19T13:18:58;13.50;99.90
43015;DHT22;28637;50.554;7.032;2023-11-19T13:24:00;14.40;99.90
43015;DHT22;28637;50.554;7.032;2023-11-19T13:29:01;15.90;99.90
43015;DHT22;28637;50.554;7.032;2023-11-19T13:34:01;16.60;99.90
43015;DHT22;28637;50.554;7.032;2023-11-19T13:39:02;15.70;99.90
43015;DHT22;28637;50.554;7.032;2023-11-19T13:44:03;15.00;99.90
43015;DHT22;28637;50.554;7.032;2023-11-19T13:49:04;16.20;99.90
43015;DHT22;28637;50.554;7.032;2023-11-19T13:54:04;17.10;99.90
43015;DHT22;28637;50.554;7.032;2023-11-19T13:59:05;17.50;99.90
43015;DHT22;28637;50.554;7.032;2023-11-19T14:04:07;17.60;99.90
43015;DHT22;28637;50.554;7.032;2023-11-19T14:09:09;16.40;99.90
43015;DHT22;28637;50.554;7.032;2023-11-19T14:14:10;16.90;99.90
43015;DHT22;28637;50.554;7.032;2023-11-19T14:19:10;15.60;99.90
43015;DHT22;28637;50.554;7.032;2023-11-19T14:24:11;14.50;99.90
43015;DHT22;28637;50.554;7.032;2023-11-19T14:29:12;14.00;99.90
43015;DHT22;28637;50.554;7.032;2023-11-19T14:34:13;13.60;99.90
43015;DHT22;28637;50.554;7.032;2023-11-19T14:39:13;13.40;99.90
43015;DHT22;28637;50.554;7.032;2023-11-19T14:44:14;13.30;99.90
43015;DHT22;28637;50.554;7.032;2023-11-19T14:49:15;13.10;99.90
43015;DHT22;28637;50.554;7.032;2023-11-19T14:54:16;13.10;99.90
43015;DHT22;28637;50.554;7.032;2023-11-19T14:59:16;13.50;99.90
43015;DHT22;28637;50.554;7.032;2023-11-19T15:04:18;13.30;99.90
43015;DHT22;28637;50.554;7.032;2023-11-19T15:09:19;13.00;99.90
43015;DHT22;28637;50.554;7.032;2023-11-19T15:14:21;12.70;99.90
43015;DHT22;28637;50.554;7.032;2023-11-19T15:19:22;12.40;99.90
43015;DHT22;28637;50.554;7.032;2023-11-19T15:24:22;12.30;99.90
43015;DHT22;28637;50.554;7.032;2023-11-19T15:29:23;12.30;99.90
43015;DHT22;28637;50.554;7.032;2023-11-19T15:34:24;12.30;99.90
43015;DHT22;28637;50.554;7.032;2023-11-19T15:39:25;12.20;99.90
43015;DHT22;28637;50.554;7.032;2023-11-19T15:44:27;12.20;99.90
43015;DHT22;28637;50.554;7.032;2023-11-19T15:49:29;11.90;99.90
43015;DHT22;28637;50.554;7.032;2023-11-19T15:54:30;11.80;99.90
43015;DHT22;28637;50.554;7.032;2023-11-19T15:59:31;11.80;99.90
43015;DHT22;28637;50.554;7.032;2023-11-19T16:04:31;11.80;99.90
43015;DHT22;28637;50.554;7.032;2023-11-19T16:09:32;11.70;99.90
43015;DHT22;28637;50.554;7.032;2023-11-19T16:14:34;11.70;99.90
43015;DHT22;28637;50.554;7.032;2023-11-19T16:19:35;11.60;99.90
43015;DHT22;28637;50.554;7.032;2023-11-19T16:24:37;11.50;99.90
43015;DHT22;28637;50.554;7.032;2023-11-19T16:29:37;11.40;99.90
43015;DHT22;28637;50.554;7.032;2023-11-19T16:34:38;11.30;99.90
43015;DHT22;28637;50.554;7.032;2023-11-19T16:39:43;11.20;99.90
43015;DHT22;28637;50.554;7.032;2023-11-19T16:44:44;11.20;99.90
43015;DHT22;28637;50.554;7.032;2023-11-19T16:49:45;11.10;99.90
43015;DHT22;28637;50.554;7.032;2023-11-19T16:54:45;11.00;99.90
43015;DHT22;28637;50.554;7.032;2023-11-19T16:59:46;11.10;99.90
43015;DHT22;28637;50.554;7.032;2023-11-19T17:04:49;11.20;99.90
43015;DHT22;28637;50.554;7.032;2023-11-19T17:09:50;11.10;99.90
43015;DHT22;28637;50.554;7.032;2023-11-19T17:14:50;11.10;99.90
43015;DHT22;28637;50.554;7.032;2023-11-19T17:19:53;11.00;99.90
43015;DHT22;28637;50.554;7.032;2023-11-19T17:24:53;10.90;99.90
43015;DHT22;28637;50.554;7.032;2023-11-19T17:29:56;10.90;99.90
43015;DHT22;28637;50.554;7.032;2023-11-19T17:34:56;10.90;99.90
43015;DHT22;28637;50.554;7.032;2023-11-19T17:39:57;11.00;99.90
43015;DHT22;28637;50.554;7.032;2023-11-19T17:44:58;11.00;99.90
43015;DHT22;28637;50.554;7.032;2023-11-19T17:49:59;11.10;99.90
43015;DHT22;28637;50.554;7.032;2023-11-19T17:55:00;11.10;99.90
43015;DHT22;28637;50.554;7.032;2023-11-19T18:00:06;11.10;99.90
43015;DHT22;28637;50.554;7.032;2023-11-19T18:05:08;11.10;99.90
43015;DHT22;28637;50.554;7.032;2023-11-19T18:10:10;11.10;99.90
43015;DHT22;28637;50.554;7.032;2023-11-19T18:15:15;11.20;99.90
43015;DHT22;28637;50.554;7.032;2023-11-19T18:20:15;11.20;99.90
43015;DHT22;28637;50.554;7.032;2023-11-19T18:25:16;11.20;99.90
43015;DHT22;28637;50.554;7.032;2023-11-19T18:30:18;11.30;99.90
43015;DHT22;28637;50.554;7.032;2023-11-19T18:35:18;11.30;99.90
43015;DHT22;28637;50.554;7.032;2023-11-19T18:40:23;11.20;99.90
43015;DHT22;28637;50.554;7.032;2023-11-19T18:45:24;11.20;99.90
43015;DHT22;28637;50.554;7.032;2023-11-19T18:50:26;11.10;99.90
43015;DHT22;28637;50.554;7.032;2023-11-19T18:55:26;11.00;99.90
43015;DHT22;28637;50.554;7.032;2023-11-19T19:00:29;10.80;99.90
43015;DHT22;28637;50.554;7.032;2023-11-19T19:05:29;10.80;99.90
43015;DHT22;28637;50.554;7.032;2023-11-19T19:10:30;10.60;99.90
43015;DHT22;28637;50.554;7.032;2023-11-19T19:15:31;10.60;99.90
43015;DHT22;28637;50.554;7.032;2023-11-19T19:20:32;10.70;99.90
43015;DHT22;28637;50.554;7.032;2023-11-19T19:25:33;10.70;99.90
43015;DHT22;28637;50.554;7.032;2023-11-19T19:30:34;10.70;99.90
43015;DHT22;28637;50.554;7.032;2023-11-19T19:35:34;10.80;99.90
43015;DHT22;28637;50.554;7.032;2023-11-19T19:40:35;10.80;99.90
43015;DHT22;28637;50.554;7.032;2023-11-19T19:45:36;10.80;99.90
43015;DHT22;28637;50.554;7.032;2023-11-19T19:50:37;10.90;99.90
43015;DHT22;28637;50.554;7.032;2023-11-19T19:55:37;11.00;99.90
43015;DHT22;28637;50.554;7.032;2023-11-19T20:00:38;11.00;99.90
43015;DHT22;28637;50.554;7.032;2023-11-19T20:05:39;11.00;99.90
43015;DHT22;28637;50.554;7.032;2023-11-19T20:10:39;11.10;99.90
43015;DHT22;28637;50.554;7.032;2023-11-19T20:15:40;11.10;99.90
43015;DHT22;28637;50.554;7.032;2023-11-19T20:20:42;11.10;99.90
43015;DHT22;28637;50.554;7.032;2023-11-19T20:25:43;11.00;99.90
43015;DHT22;28637;50.554;7.032;2023-11-19T20:30:44;11.00;99.90
43015;DHT22;28637;50.554;7.032;2023-11-19T20:35:44;11.00;99.90
43015;DHT22;28637;50.554;7.032;2023-11-19T20:40:46;10.90;99.90
43015;DHT22;28637;50.554;7.032;2023-11-19T20:45:46;10.90;99.90
43015;DHT22;28637;50.554;7.032;2023-11-19T20:50:47;10.90;99.90
43015;DHT22;28637;50.554;7.032;2023-11-19T20:55:48;10.80;99.90
43015;DHT22;28637;50.554;7.032;2023-11-19T21:00:49;10.80;99.90
43015;DHT22;28637;50.554;7.032;2023-11-19T21:05:50;10.80;99.90
43015;DHT22;28637;50.554;7.032;2023-11-19T21:10:54;10.80;99.90
43015;DHT22;28637;50.554;7.032;2023-11-19T21:15:55;10.80;99.90
43015;DHT22;28637;50.554;7.032;2023-11-19T21:21:00;10.80;99.90
43015;DHT22;28637;50.554;7.032;2023-11-19T21:26:01;10.80;99.90
43015;DHT22;28637;50.554;7.032;2023-11-19T21:31:01;10.70;99.90
43015;DHT22;28637;50.554;7.032;2023-11-19T21:36:03;10.60;99.90
43015;DHT22;28637;50.554;7.032;2023-11-19T21:41:04;10.50;99.90
43015;DHT22;28637;50.554;7.032;2023-11-19T21:46:05;10.50;99.90
43015;DHT22;28637;50.554;7.032;2023-11-19T21:51:06;10.50;99.90
43015;DHT22;28637;50.554;7.032;2023-11-19T21:56:08;10.50;99.90
43015;DHT22;28637;50.554;7.032;2023-11-19T22:01:08;10.50;99.90
43015;DHT22;28637;50.554;7.032;2023-11-19T22:06:09;10.40;99.90
43015;DHT22;28637;50.554;7.032;2023-11-19T22:11:16;10.40;99.90
43015;DHT22;28637;50.554;7.032;2023-11-19T22:16:16;10.40;99.90
43015;DHT22;28637;50.554;7.032;2023-11-19T22:21:17;10.30;99.90
43015;DHT22;28637;50.554;7.032;2023-11-19T22:26:18;10.40;99.90
43015;DHT22;28637;50.554;7.032;2023-11-19T22:31:18;10.40;99.90
43015;DHT22;28637;50.554;7.032;2023-11-19T22:36:19;10.40;99.90
43015;DHT22;28637;50.554;7.032;2023-11-19T22:41:20;10.40;99.90
43015;DHT22;28637;50.554;7.032;2023-11-19T22:46:20;10.40;99.90
43015;DHT22;28637;50.554;7.032;2023-11-19T22:51:24;10.40;99.90
43015;DHT22;28637;50.554;7.032;2023-11-19T22:56:25;10.40;99.90
43015;DHT22;28637;50.554;7.032;2023-11-19T23:01:25;10.40;99.90
43015;DHT22;28637;50.554;7.032;2023-11-19T23:06:26;10.40;99.90
43015;DHT22;28637;50.554;7.032;2023-11-19T23:11:27;10.40;99.90
43015;DHT22;28637;50.554;7.032;2023-11-19T23:16:28;10.40;99.90
43015;DHT22;28637;50.554;7.032;2023-11-19T23:21:28;10.40;99.90
43015;DHT22;28637;50.554;7.032;2023-11-19T23:26:29;10.40;99.90
43015;DHT22;28637;50.554;7.032;2023-11-19T23:31:30;10.30;99.90
43015;DHT22;28637;50.554;7.032;2023-11-19T23:36:30;10.40;99.90
43015;DHT22;28637;50.554;7.032;2023-11-19T23:41:31;10.40;99.90
43015;DHT22;28637;50.554;7.032;2023-11-19T23:46:32;10.40;99.90
43015;DHT22;28637;50.554;7.032;2023-11-19T23:51:36;10.40;99.90
43015;DHT22;28637;50.554;7.032;2023-11-19T23:56:39;10.40;99.90
